Time;durP1;ratioP1;P1;durP2;ratioP2;P2;SDS_P1;SDS_P2;PMS_P1;PMS_P2;Temp;Humidity;BMP_temperature;BMP_pressure;BME280_temperature;BME280_humidity;BME280_pressure;Samples;Min_cycle;Max_cycle;Signal;HPM_P1;HPM_P2
2023/12/10 00:00:00;;;;;;;103.17;31.17;;;0.20;99.90;-0.90;99435;;;;566954;249;24107;-75
2023/12/10 00:02:28;;;;;;;76.73;27.23;;;0.20;99.90;-0.80;99434;;;;566870;249;24123;-77
2023/12/10 00:04:56;;;;;;;79.13;27.30;;;0.20;99.90;-0.80;99445;;;;565348;249;24055;-76
2023/12/10 00:07:23;;;;;;;79.03;26.57;;;0.20;99.90;-0.80;99446;;;;566729;248;24116;-76
2023/12/10 00:09:51;;;;;;;225.85;52.55;;;0.20;99.90;-0.80;99447;;;;561111;248;46065;-76
2023/12/10 00:12:19;;;;;;;35.20;14.47;;;0.30;99.90;-0.80;99445;;;;567673;248;24043;-75
2023/12/10 00:14:53;;;;;;;25.03;11.87;;;0.20;99.90;-0.80;99447;;;;567780;248;24099;-76
2023/12/10 00:17:15;;;;;;;35.50;15.73;;;0.30;99.90;-0.80;99438;;;;565089;248;24143;-79
2023/12/10 00:19:43;;;;;;;36.07;13.87;;;0.30;99.90;-0.80;99436;;;;567626;248;24174;-76
2023/12/10 00:22:11;;;;;;;44.73;16.43;;;0.30;99.90;-0.80;99430;;;;565515;248;24087;-76
2023/12/10 00:24:40;;;;;;;97.53;23.90;;;0.30;99.90;-0.80;99431;;;;565295;249;24095;-82
2023/12/10 00:27:07;;;;;;;98.23;26.97;;;0.30;99.90;-0.80;99431;;;;565260;249;24081;-82
2023/12/10 00:29:35;;;;;;;163.17;34.47;;;0.30;99.90;-0.80;99431;;;;567043;249;24129;-77
2023/12/10 00:32:04;;;;;;;141.70;35.33;;;0.30;99.90;-0.80;99418;;;;567334;249;24062;-75
2023/12/10 00:34:31;;;;;;;224.70;40.83;;;0.30;99.90;-0.80;99428;;;;567526;249;24125;-83
2023/12/10 00:36:59;;;;;;;157.23;35.93;;;0.30;99.90;-0.80;99416;;;;567646;249;24101;-83
2023/12/10 00:39:28;;;;;;;154.57;37.70;;;0.30;99.90;-0.80;99421;;;;567524;249;24047;-82
2023/12/10 00:41:55;;;;;;;146.27;35.73;;;0.30;99.90;-0.80;99411;;;;567470;249;24148;-81
2023/12/10 00:44:24;;;;;;;167.63;35.17;;;0.30;99.90;-0.80;99415;;;;567252;249;24121;-77
2023/12/10 00:46:52;;;;;;;172.13;33.40;;;0.30;99.90;-0.80;99423;;;;567324;249;24133;-75
2023/12/10 00:49:20;;;;;;;126.50;31.73;;;0.30;99.90;-0.80;99412;;;;567359;249;24185;-77
2023/12/10 00:51:48;;;;;;;147.43;31.83;;;0.30;99.90;-0.80;99419;;;;567432;249;24119;-78
2023/12/10 00:54:16;;;;;;;148.83;34.37;;;0.30;99.90;-0.80;99422;;;;567473;249;24078;-82
2023/12/10 00:56:44;;;;;;;146.77;32.20;;;0.30;99.90;-0.70;99434;;;;567427;249;25126;-76
2023/12/10 00:59:12;;;;;;;134.33;30.90;;;0.30;99.90;-0.70;99428;;;;564963;249;24084;-76
2023/12/10 01:01:41;;;;;;;142.87;29.00;;;0.30;99.90;-0.70;99426;;;;567220;249;24111;-74
2023/12/10 01:04:08;;;;;;;144.80;28.53;;;0.40;99.90;-0.70;99423;;;;566896;249;24080;-75
2023/12/10 01:06:36;;;;;;;146.53;30.03;;;0.40;99.90;-0.70;99434;;;;567409;249;24134;-76
2023/12/10 01:09:04;;;;;;;144.47;32.10;;;0.40;99.90;-0.70;99426;;;;567208;249;24163;-78
2023/12/10 01:11:31;;;;;;;154.00;31.20;;;0.40;99.90;-0.70;99428;;;;566790;249;24074;-75
2023/12/10 01:14:02;;;;;;;150.03;30.40;;;0.40;99.90;-0.70;99428;;;;567052;249;24064;-75
2023/12/10 01:16:28;;;;;;;154.10;33.13;;;0.40;99.90;-0.70;99427;;;;566837;249;24063;-74
2023/12/10 01:18:57;;;;;;;141.00;29.50;;;0.40;99.90;-0.70;99426;;;;568414;248;24082;-75
2023/12/10 01:21:25;;;;;;;143.23;30.40;;;0.40;99.90;-0.70;99441;;;;568073;248;24064;-75
2023/12/10 01:23:57;;;;;;;164.07;31.63;;;0.40;99.90;-0.70;99428;;;;567664;248;24066;-75
2023/12/10 01:26:28;;;;;;;169.30;29.80;;;0.40;99.90;-0.70;99430;;;;567683;248;24120;-75
2023/12/10 01:28:52;;;;;;;167.67;31.27;;;0.40;99.90;-0.70;99441;;;;567248;248;25118;-75
2023/12/10 01:31:20;;;;;;;160.27;33.17;;;0.40;99.90;-0.70;99441;;;;565413;248;24063;-74
2023/12/10 01:33:49;;;;;;;146.60;29.53;;;0.40;99.90;-0.70;99439;;;;567521;248;25130;-75
2023/12/10 01:36:26;;;;;;;114.90;26.37;;;0.40;99.90;-0.70;99431;;;;567778;249;24050;-75
2023/12/10 01:38:51;;;;;;;150.37;28.97;;;0.40;99.90;-0.60;99436;;;;567435;249;24077;-74
2023/12/10 01:41:19;;;;;;;138.23;30.60;;;0.40;99.90;-0.70;99439;;;;566003;249;24090;-75
2023/12/10 01:43:47;;;;;;;138.77;28.33;;;0.40;99.90;-0.60;99434;;;;567632;249;24054;-75
2023/12/10 01:46:14;;;;;;;160.53;31.43;;;0.40;99.90;-0.70;99424;;;;567593;249;24140;-75
2023/12/10 01:48:42;;;;;;;122.50;29.97;;;0.40;99.90;-0.70;99432;;;;567573;249;24084;-75
2023/12/10 01:51:10;;;;;;;47.65;15.40;;;-3.30;99.90;-0.70;99419;;;;558508;249;35137;-78
2023/12/10 01:53:38;;;;;;;12.63;5.73;;;0.40;99.90;-0.70;99414;;;;566648;249;24103;-74
2023/12/10 01:56:11;;;;;;;26.57;12.27;;;0.40;99.90;-0.70;99423;;;;565727;249;24073;-75
2023/12/10 01:58:35;;;;;;;22.97;10.23;;;0.40;99.90;-0.70;99424;;;;567050;249;25127;-76
2023/12/10 02:01:06;;;;;;;54.50;15.97;;;0.40;99.90;-0.60;99425;;;;566942;249;24063;-75
2023/12/10 02:03:34;;;;;;;107.55;21.62;;;0.40;99.90;-0.60;99423;;;;559780;249;35509;-77
2023/12/10 02:05:59;;;;;;;22.53;11.13;;;0.40;99.90;-0.70;99424;;;;567214;249;24091;-75
2023/12/10 02:08:27;;;;;;;12.80;7.80;;;0.40;99.90;-0.60;99426;;;;575898;245;24062;-76
2023/12/10 02:10:55;;;;;;;30.60;12.07;;;0.40;99.90;-0.60;99430;;;;567008;249;24096;-75
2023/12/10 02:13:25;;;;;;;29.30;11.07;;;0.40;99.90;-0.60;99427;;;;565168;247;24068;-75
2023/12/10 02:15:51;;;;;;;30.17;11.80;;;0.50;99.90;-0.50;99421;;;;566724;249;24114;-75
2023/12/10 02:18:20;;;;;;;45.63;14.40;;;0.50;99.90;-0.50;99417;;;;567061;249;24108;-76
2023/12/10 02:20:51;;;;;;;104.57;20.67;;;0.50;99.90;-0.50;99421;;;;564986;249;24124;-75
2023/12/10 02:23:22;;;;;;;171.10;29.63;;;0.50;99.90;-0.50;99410;;;;567036;249;24066;-76
2023/12/10 02:25:50;;;;;;;151.90;31.97;;;0.60;99.90;-0.50;99401;;;;566395;249;24155;-74
2023/12/10 02:28:22;;;;;;;190.20;32.23;;;0.60;99.90;-0.50;99406;;;;565050;249;24066;-75
2023/12/10 02:30:46;;;;;;;194.03;33.80;;;0.60;99.90;-0.50;99404;;;;568273;248;24158;-75
2023/12/10 02:33:14;;;;;;;337.73;51.13;;;0.50;99.90;-0.50;99407;;;;561105;248;35558;-75
2023/12/10 02:35:41;;;;;;;27.07;8.67;;;0.60;99.90;-0.50;99402;;;;568174;248;24138;-76
2023/12/10 02:38:09;;;;;;;20.00;9.00;;;0.60;99.90;-0.50;99403;;;;568024;248;24087;-76
2023/12/10 02:40:37;;;;;;;10.33;5.33;;;0.60;99.90;-0.50;99411;;;;565816;248;24102;-75
2023/12/10 02:43:06;;;;;;;37.90;12.30;;;0.60;99.90;-0.50;99410;;;;565805;248;24137;-75
2023/12/10 02:45:36;;;;;;;18.47;8.77;;;0.50;99.90;-0.50;99402;;;;565894;248;24098;-76
2023/12/10 02:48:01;;;;;;;41.63;12.53;;;0.60;99.90;-0.50;99405;;;;567464;245;24066;-75
2023/12/10 02:50:30;;;;;;;27.87;11.10;;;0.60;99.90;-0.40;99408;;;;565608;249;24032;-76
2023/12/10 02:52:58;;;;;;;77.50;18.23;;;0.60;99.90;-0.40;99408;;;;565565;249;24055;-77
2023/12/10 02:55:26;;;;;;;137.50;28.70;;;0.60;99.90;-0.40;99415;;;;565581;249;24080;-75
2023/12/10 02:57:54;;;;;;;176.77;31.00;;;0.60;99.90;-0.40;99414;;;;567603;249;24046;-76
2023/12/10 03:00:22;;;;;;;199.63;32.30;;;0.60;99.90;-0.40;99416;;;;567593;249;24051;-76
2023/12/10 03:02:50;;;;;;;184.20;33.40;;;0.60;99.90;-0.40;99402;;;;567172;249;24105;-76
2023/12/10 03:05:18;;;;;;;199.47;34.40;;;0.60;99.90;-0.40;99407;;;;567219;249;24058;-76
2023/12/10 03:07:46;;;;;;;205.60;32.70;;;0.60;99.90;-0.40;99402;;;;567310;249;24085;-76
2023/12/10 03:10:14;;;;;;;195.57;37.80;;;0.70;99.90;-0.40;99398;;;;567031;249;24126;-76
2023/12/10 03:12:43;;;;;;;260.93;37.03;;;0.70;99.90;-0.40;99407;;;;566921;249;24107;-83
2023/12/10 03:15:16;;;;;;;206.07;34.53;;;0.70;99.90;-0.40;99400;;;;567252;249;24058;-83
2023/12/10 03:17:40;;;;;;;213.37;35.73;;;0.70;99.90;-0.30;99401;;;;566747;249;24071;-82
2023/12/10 03:20:09;;;;;;;177.23;32.87;;;0.70;99.90;-0.40;99406;;;;566989;249;24300;-82
2023/12/10 03:22:36;;;;;;;199.10;32.77;;;0.70;99.90;-0.30;99404;;;;566995;249;25148;-82
2023/12/10 03:25:06;;;;;;;177.67;32.63;;;0.70;99.90;-0.30;99406;;;;564900;246;24110;-83
2023/12/10 03:27:32;;;;;;;223.53;37.37;;;0.70;99.90;-0.30;99402;;;;566946;249;24059;-82
2023/12/10 03:30:00;;;;;;;164.43;30.97;;;0.70;99.90;-0.30;99407;;;;567013;249;24070;-82
2023/12/10 03:32:27;;;;;;;193.85;35.70;;;0.70;99.90;-0.30;99405;;;;561975;249;35205;-77
2023/12/10 03:34:55;;;;;;;36.50;13.60;;;0.80;99.90;-0.30;99410;;;;564932;249;24110;-77
2023/12/10 03:37:23;;;;;;;156.68;27.92;;;0.80;99.90;-0.20;99416;;;;560570;249;35236;-82
2023/12/10 03:39:51;;;;;;;66.30;19.57;;;0.80;99.90;-0.20;99409;;;;567620;249;24055;-83
2023/12/10 03:42:20;;;;;;;36.80;12.53;;;0.80;99.90;-0.20;99402;;;;566937;248;24059;-82
2023/12/10 03:44:48;;;;;;;18.03;9.50;;;0.80;99.90;-0.20;99403;;;;566206;248;24148;-83
2023/12/10 03:47:16;;;;;;;22.53;10.97;;;0.90;99.90;-0.20;99401;;;;566103;248;24104;-83
2023/12/10 03:49:44;;;;;;;13.13;8.57;;;0.80;99.90;-0.20;99396;;;;566093;248;24133;-81
2023/12/10 03:52:13;;;;;;;22.67;8.57;;;0.90;99.90;-0.20;99406;;;;565892;248;24094;-81
2023/12/10 03:54:40;;;;;;;16.77;7.90;;;0.90;99.90;-0.20;99401;;;;565875;248;24050;-76
2023/12/10 03:57:08;;;;;;;34.20;13.67;;;0.90;99.90;-0.20;99400;;;;567928;248;24055;-78
2023/12/10 03:59:36;;;;;;;41.33;14.20;;;0.90;99.90;-0.20;99409;;;;565993;249;24067;-81
2023/12/10 04:02:04;;;;;;;34.43;16.00;;;0.90;99.90;-0.20;99402;;;;566072;249;24105;-84
2023/12/10 04:04:33;;;;;;;15.70;6.77;;;0.90;99.90;-0.20;99397;;;;563195;247;24059;-80
2023/12/10 04:07:00;;;;;;;97.15;24.40;;;0.90;99.90;-0.20;99408;;;;560621;249;35136;-81
2023/12/10 04:09:29;;;;;;;28.83;13.37;;;0.90;99.90;-0.10;99409;;;;565399;249;24085;-83
2023/12/10 04:11:56;;;;;;;23.20;8.83;;;0.90;99.90;-0.10;99411;;;;565106;249;24078;-82
2023/12/10 04:14:24;;;;;;;17.67;8.27;;;0.90;99.90;-0.10;99402;;;;567424;249;24058;-82
2023/12/10 04:16:52;;;;;;;29.40;11.57;;;0.90;99.90;-0.10;99403;;;;565140;249;24101;-82
2023/12/10 04:19:20;;;;;;;23.47;10.00;;;0.90;99.90;-0.20;99413;;;;564933;249;24090;-83
2023/12/10 04:21:48;;;;;;;24.23;11.40;;;0.90;99.90;-0.10;99408;;;;565224;249;24115;-79
2023/12/10 04:24:16;;;;;;;29.63;12.87;;;0.90;99.90;-0.10;99410;;;;565484;249;24211;-76
2023/12/10 04:26:44;;;;;;;40.00;18.50;;;0.90;99.90;-0.10;99403;;;;565540;249;25095;-76
2023/12/10 04:29:12;;;;;;;18.50;8.60;;;0.90;99.90;-0.20;99406;;;;567784;249;24079;-75
2023/12/10 04:31:40;;;;;;;31.63;11.73;;;0.80;99.90;-0.20;99397;;;;565946;249;24048;-82
2023/12/10 04:34:07;;;;;;;44.87;17.03;;;0.90;99.90;-0.20;99393;;;;566340;249;24117;-82
2023/12/10 04:36:36;;;;;;;93.37;23.33;;;0.90;99.90;-0.20;99385;;;;567427;249;24090;-81
2023/12/10 04:39:04;;;;;;;116.83;31.40;;;0.80;99.90;-0.20;99383;;;;565487;249;24083;-80
2023/12/10 04:41:32;;;;;;;98.50;33.03;;;0.80;99.90;-0.20;99388;;;;567382;249;24101;-83
2023/12/10 04:44:04;;;;;;;117.93;36.07;;;0.80;99.90;-0.20;99404;;;;565389;249;24070;-83
2023/12/10 04:46:28;;;;;;;106.27;31.80;;;0.80;99.90;-0.20;99404;;;;566938;249;24127;-82
2023/12/10 04:48:56;;;;;;;124.33;36.70;;;0.80;99.90;-0.20;99399;;;;567335;249;24151;-83
2023/12/10 04:51:24;;;;;;;131.87;36.67;;;0.80;99.90;-0.20;99400;;;;567339;249;24102;-81
2023/12/10 04:53:52;;;;;;;112.37;34.73;;;0.80;99.90;-0.20;99388;;;;568651;248;24201;-82
2023/12/10 04:56:19;;;;;;;89.17;33.43;;;0.90;99.90;-0.20;99392;;;;568467;248;24086;-82
2023/12/10 04:58:47;;;;;;;95.90;32.00;;;0.90;99.90;-0.20;99386;;;;578238;246;24045;-76
2023/12/10 05:01:17;;;;;;;113.43;36.97;;;0.90;99.90;-0.20;99395;;;;565982;248;24098;-79
2023/12/10 05:03:45;;;;;;;112.37;35.53;;;0.90;99.90;-0.20;99403;;;;567742;248;24073;-83
2023/12/10 05:06:13;;;;;;;96.67;31.30;;;0.90;99.90;-0.10;99397;;;;565559;248;24079;-76
2023/12/10 05:08:41;;;;;;;112.00;36.33;;;0.90;99.90;-0.20;99401;;;;565841;248;24139;-77
2023/12/10 05:11:09;;;;;;;93.43;33.37;;;0.90;99.90;-0.20;99405;;;;567360;249;24101;-76
2023/12/10 05:13:36;;;;;;;93.87;36.20;;;0.90;99.90;-0.10;99400;;;;565464;249;24095;-78
2023/12/10 05:16:04;;;;;;;86.73;34.73;;;0.90;99.90;-0.20;99394;;;;565358;249;24147;-76
2023/12/10 05:18:32;;;;;;;130.20;47.97;;;0.90;99.90;-0.10;99396;;;;562290;249;35167;-76
2023/12/10 05:21:01;;;;;;;49.27;19.10;;;0.90;99.90;-0.10;99392;;;;567278;249;24092;-77
2023/12/10 05:23:28;;;;;;;46.63;17.60;;;0.90;99.90;-0.10;99389;;;;565093;249;24089;-76
2023/12/10 05:25:56;;;;;;;53.70;18.90;;;0.90;99.90;-0.10;99399;;;;565354;249;24048;-78
2023/12/10 05:28:24;;;;;;;40.93;19.70;;;0.90;99.90;-0.10;99403;;;;565175;249;24066;-83
2023/12/10 05:30:52;;;;;;;38.93;18.07;;;0.90;99.90;-0.10;99382;;;;564931;249;24148;-81
2023/12/10 05:33:20;;;;;;;39.33;17.50;;;1.00;99.90;-0.10;99392;;;;565050;249;24101;-81
2023/12/10 05:35:48;;;;;;;80.23;32.80;;;0.90;99.90;-0.10;99381;;;;564941;249;24100;-77
2023/12/10 05:38:16;;;;;;;98.93;35.47;;;0.90;99.90;-0.10;99385;;;;577479;249;24074;-79
2023/12/10 05:40:44;;;;;;;89.13;34.47;;;0.90;99.90;-0.10;99382;;;;577092;246;24085;-80
2023/12/10 05:43:12;;;;;;;75.23;30.47;;;0.90;99.90;-0.10;99378;;;;576954;247;24089;-76
2023/12/10 05:45:40;;;;;;;74.33;30.27;;;0.90;99.90;-0.10;99382;;;;577037;247;24058;-76
2023/12/10 05:48:08;;;;;;;78.73;34.23;;;0.90;99.90;-0.10;99376;;;;576973;247;24133;-76
2023/12/10 05:50:36;;;;;;;78.70;34.27;;;0.90;99.90;-0.10;99377;;;;577015;247;24099;-77
2023/12/10 05:53:05;;;;;;;78.47;34.53;;;0.90;99.90;-0.10;99389;;;;576848;249;24107;-81
2023/12/10 05:55:32;;;;;;;80.07;33.07;;;0.90;99.90;-0.10;99382;;;;576994;247;24081;-82
2023/12/10 05:58:00;;;;;;;75.63;32.50;;;0.90;99.90;-0.10;99386;;;;577010;247;24105;-81
2023/12/10 06:00:28;;;;;;;82.60;35.37;;;0.90;99.90;-0.10;99375;;;;577012;247;24127;-81
2023/12/10 06:02:56;;;;;;;88.03;36.00;;;0.90;99.90;-0.10;99370;;;;576982;247;24086;-82
2023/12/10 06:05:24;;;;;;;87.03;33.93;;;2.50;99.90;-0.10;99376;;;;578430;247;24079;-80
2023/12/10 06:07:52;;;;;;;72.07;31.33;;;0.90;99.90;-0.20;99371;;;;578490;246;24136;-77
2023/12/10 06:10:20;;;;;;;76.33;32.63;;;0.90;99.90;-0.10;99376;;;;577800;244;24106;-79
2023/12/10 06:12:50;;;;;;;75.43;33.80;;;0.90;99.90;-0.10;99367;;;;577526;248;24100;-78
2023/12/10 06:15:18;;;;;;;78.83;33.97;;;0.90;99.90;-0.20;99365;;;;577399;248;24091;-79
2023/12/10 06:17:43;;;;;;;68.87;29.02;;;0.80;99.90;-0.20;99374;;;;572114;246;35300;-77
2023/12/10 06:20:12;;;;;;;73.30;32.75;;;0.90;99.90;-0.10;99371;;;;572409;246;35124;-80
2023/12/10 06:22:41;;;;;;;33.90;14.57;;;0.90;99.90;-0.10;99379;;;;577274;246;24123;-82
2023/12/10 06:25:08;;;;;;;36.33;14.67;;;0.90;99.90;-0.10;99383;;;;577160;246;24071;-83
2023/12/10 06:27:36;;;;;;;43.80;18.40;;;0.90;99.90;-0.10;99379;;;;577246;247;24083;-82
2023/12/10 06:30:04;;;;;;;32.00;14.13;;;0.90;99.90;-0.10;99381;;;;577159;247;25168;-81
2023/12/10 06:32:32;;;;;;;31.10;12.57;;;0.90;99.90;-0.10;99391;;;;577179;247;24113;-82
2023/12/10 06:35:00;;;;;;;28.30;14.03;;;0.90;99.90;-0.10;99394;;;;577192;247;24124;-81
2023/12/10 06:37:28;;;;;;;31.60;14.63;;;0.90;99.90;-0.10;99390;;;;577275;247;24064;-80
2023/12/10 06:39:57;;;;;;;38.03;15.60;;;0.90;99.90;-0.20;99400;;;;577403;246;24107;-81
2023/12/10 06:42:24;;;;;;;35.37;16.50;;;0.90;99.90;-0.20;99405;;;;576944;247;24072;-78
2023/12/10 06:44:56;;;;;;;53.43;22.83;;;0.90;99.90;-0.10;99403;;;;576939;247;24132;-80
2023/12/10 06:47:20;;;;;;;59.23;26.23;;;0.80;99.90;-0.10;99404;;;;576610;249;24100;-80
2023/12/10 06:49:48;;;;;;;72.00;31.67;;;0.90;99.90;-0.20;99403;;;;576982;247;24076;-81
2023/12/10 06:52:17;;;;;;;64.77;33.33;;;0.80;99.90;-0.20;99411;;;;577010;247;24087;-78
2023/12/10 06:54:45;;;;;;;69.87;34.20;;;0.80;99.90;-0.30;99425;;;;576932;247;24097;-77
2023/12/10 06:57:13;;;;;;;70.27;34.87;;;0.70;99.90;-0.30;99410;;;;576962;247;24095;-81
2023/12/10 06:59:41;;;;;;;60.40;25.50;;;-0.60;99.90;-0.40;99426;;;;571993;247;35169;-77
2023/12/10 07:02:09;;;;;;;41.13;17.40;;;0.70;99.90;-0.30;99417;;;;577001;247;24129;-75
2023/12/10 07:04:37;;;;;;;25.33;14.33;;;0.70;99.90;-0.30;99425;;;;576879;249;24095;-76
2023/12/10 07:07:05;;;;;;;34.57;13.33;;;0.70;99.90;-0.30;99429;;;;577068;247;24106;-76
2023/12/10 07:09:34;;;;;;;33.90;14.93;;;0.80;99.90;-0.30;99427;;;;577377;245;24099;-77
2023/12/10 07:12:05;;;;;;;58.47;28.13;;;0.80;99.90;-0.30;99427;;;;577011;249;24072;-81
2023/12/10 07:14:29;;;;;;;68.87;33.30;;;0.80;99.90;-0.30;99433;;;;576788;249;24071;-76
2023/12/10 07:16:57;;;;;;;58.60;31.13;;;-2.10;99.90;-0.20;99439;;;;578406;247;24073;-77
2023/12/10 07:19:25;;;;;;;54.83;28.33;;;0.90;99.90;-0.20;99441;;;;578017;246;24114;-77
2023/12/10 07:21:55;;;;;;;62.70;31.87;;;0.90;99.90;-0.20;99433;;;;577768;246;24093;-77
2023/12/10 07:24:22;;;;;;;64.57;29.57;;;0.90;99.90;-0.10;99439;;;;577626;247;24149;-78
2023/12/10 07:26:49;;;;;;;52.40;22.15;;;0.90;99.90;-0.20;99446;;;;572469;246;35192;-79
2023/12/10 07:29:18;;;;;;;32.10;15.40;;;0.90;99.90;-0.20;99441;;;;577382;248;24084;-79
2023/12/10 07:31:46;;;;;;;34.97;12.93;;;0.90;99.90;-0.20;99446;;;;577482;246;24122;-79
2023/12/10 07:34:14;;;;;;;25.40;9.57;;;0.90;99.90;-0.10;99450;;;;577338;246;24097;-82
2023/12/10 07:36:42;;;;;;;34.73;16.17;;;0.80;99.90;-0.20;99455;;;;577672;246;24115;-82
2023/12/10 07:39:13;;;;;;;37.93;17.27;;;0.80;99.90;-0.20;99455;;;;577249;246;24101;-82
2023/12/10 07:41:37;;;;;;;36.80;16.13;;;0.80;99.90;-0.20;99447;;;;576851;249;24067;-83
2023/12/10 07:44:05;;;;;;;58.83;25.93;;;0.80;99.90;-0.20;99444;;;;577276;240;25141;-81
2023/12/10 07:46:33;;;;;;;57.73;27.57;;;0.80;99.90;-0.20;99443;;;;577201;247;24094;-80
2023/12/10 07:49:01;;;;;;;64.97;31.07;;;0.90;99.90;-0.10;99444;;;;577226;247;24136;-83
2023/12/10 07:51:29;;;;;;;67.80;32.30;;;0.90;99.90;-0.20;99438;;;;577176;247;24101;-80
2023/12/10 07:53:57;;;;;;;23.02;12.32;;;0.90;99.90;-0.10;99444;;;;571967;247;35288;-84
2023/12/10 07:56:27;;;;;;;12.40;7.33;;;0.90;99.90;-0.10;99438;;;;576983;247;24094;-82
2023/12/10 07:58:53;;;;;;;32.17;13.73;;;1.00;99.90;-0.10;99440;;;;577520;247;24108;-82
2023/12/10 08:01:21;;;;;;;26.53;13.70;;;1.00;99.90;-0.10;99437;;;;577245;246;24142;-81
2023/12/10 08:03:49;;;;;;;52.37;22.97;;;1.00;99.90;-0.10;99432;;;;577047;247;24085;-82
2023/12/10 08:06:17;;;;;;;66.93;34.13;;;-1.20;99.90;-0.10;99429;;;;577024;247;24107;-81
2023/12/10 08:08:45;;;;;;;67.27;33.63;;;1.10;99.90;-0.10;99422;;;;576885;245;24074;-83
2023/12/10 08:11:13;;;;;;;67.77;32.33;;;1.10;99.90;0.00;99435;;;;577350;247;24152;-77
2023/12/10 08:13:41;;;;;;;66.47;30.80;;;0.90;99.90;0.00;99438;;;;577041;246;24096;-76
2023/12/10 08:16:12;;;;;;;74.17;33.20;;;1.10;99.90;0.00;99445;;;;577412;246;24084;-75
2023/12/10 08:18:39;;;;;;;56.40;27.07;;;;;0.00;99451;;;;576847;249;24125;-77
2023/12/10 08:21:06;;;;;;;43.42;21.58;;;1.10;99.90;0.00;99447;;;;571956;246;35158;-77
2023/12/10 08:23:34;;;;;;;38.70;15.47;;;1.10;99.90;0.10;99444;;;;577410;246;24063;-75
2023/12/10 08:26:03;;;;;;;36.37;13.37;;;1.00;99.90;0.10;99459;;;;577055;246;24103;-76
2023/12/10 08:28:30;;;;;;;13.87;9.37;;;1.10;99.90;0.10;99450;;;;578853;246;24085;-76
2023/12/10 08:30:58;;;;;;;35.03;15.00;;;1.20;99.90;0.10;99457;;;;578190;246;24080;-78
2023/12/10 08:33:26;;;;;;;37.83;15.47;;;1.20;99.90;0.10;99460;;;;578264;246;24079;-76
2023/12/10 08:35:54;;;;;;;35.93;16.73;;;1.20;99.90;0.10;99466;;;;577865;246;24108;-76
2023/12/10 08:38:22;;;;;;;52.87;26.50;;;1.20;99.90;0.10;99454;;;;578005;246;24159;-77
2023/12/10 08:40:50;;;;;;;57.33;26.83;;;1.20;99.90;0.20;99460;;;;577722;246;24085;-77
2023/12/10 08:43:20;;;;;;;55.80;27.23;;;1.20;99.90;0.20;99464;;;;577959;246;24064;-76
2023/12/10 08:45:46;;;;;;;66.07;32.70;;;1.20;99.90;0.20;99452;;;;577280;248;24071;-77
2023/12/10 08:48:14;;;;;;;61.13;31.60;;;1.20;99.90;0.10;99467;;;;577726;246;24148;-77
2023/12/10 08:50:42;;;;;;;62.57;33.93;;;1.20;99.90;0.20;99450;;;;577265;246;24099;-76
2023/12/10 08:53:09;;;;;;;52.93;28.43;;;1.20;99.90;0.20;99443;;;;577633;246;24076;-75
2023/12/10 08:55:37;;;;;;;66.23;31.23;;;1.30;99.90;0.20;99462;;;;577234;246;24121;-76
2023/12/10 08:58:05;;;;;;;50.67;25.87;;;1.20;99.90;0.20;99468;;;;577666;246;24094;-77
2023/12/10 09:00:36;;;;;;;65.07;31.70;;;1.30;99.90;0.20;99462;;;;577392;246;24089;-75
2023/12/10 09:03:01;;;;;;;59.37;29.50;;;1.30;99.90;0.20;99461;;;;577346;249;24118;-75
2023/12/10 09:05:30;;;;;;;59.93;32.43;;;1.30;99.90;0.20;99462;;;;577169;246;24091;-76
2023/12/10 09:07:57;;;;;;;62.60;31.23;;;1.30;99.90;0.20;99469;;;;577384;249;24126;-77
2023/12/10 09:10:25;;;;;;;53.07;27.63;;;1.30;99.90;0.20;99464;;;;576984;245;24124;-76
2023/12/10 09:12:52;;;;;;;51.73;28.63;;;1.20;99.90;0.20;99463;;;;577415;246;24096;-77
2023/12/10 09:15:20;;;;;;;55.40;28.27;;;1.30;99.90;0.20;99467;;;;576921;246;24153;-78
2023/12/10 09:17:48;;;;;;;52.30;27.50;;;1.30;99.90;0.20;99459;;;;577443;246;24080;-76
2023/12/10 09:20:16;;;;;;;53.00;26.57;;;1.30;99.90;0.30;99474;;;;577029;246;24134;-77
2023/12/10 09:22:44;;;;;;;55.73;30.73;;;1.30;99.90;0.30;99459;;;;577429;246;24079;-76
2023/12/10 09:25:12;;;;;;;52.10;28.53;;;1.30;99.90;0.30;99467;;;;577007;246;24135;-76
2023/12/10 09:27:40;;;;;;;63.03;29.97;;;1.40;99.90;0.30;99467;;;;577379;246;24059;-76
2023/12/10 09:30:09;;;;;;;53.93;30.20;;;1.40;99.90;0.30;99468;;;;577071;246;24157;-76
2023/12/10 09:32:37;;;;;;;55.80;29.53;;;1.40;99.90;0.40;99467;;;;577487;246;24060;-77
2023/12/10 09:35:05;;;;;;;52.63;24.87;;;1.40;99.90;0.40;99466;;;;577134;246;24072;-76
2023/12/10 09:37:37;;;;;;;46.67;25.47;;;1.40;99.90;0.40;99456;;;;577514;246;24089;-76
2023/12/10 09:40:02;;;;;;;44.73;22.77;;;1.50;99.90;0.40;99454;;;;578580;247;25134;-75
2023/12/10 09:42:30;;;;;;;53.30;24.43;;;1.50;99.90;0.40;99455;;;;578763;246;24065;-76
2023/12/10 09:44:58;;;;;;;45.77;23.43;;;1.50;99.90;0.50;99452;;;;578313;246;24118;-78
2023/12/10 09:47:28;;;;;;;41.43;25.50;;;1.50;99.90;0.40;99450;;;;578379;246;24078;-80
2023/12/10 09:49:57;;;;;;;51.13;26.30;;;1.50;99.90;0.50;99447;;;;577486;247;24117;-76
2023/12/10 09:52:24;;;;;;;44.37;21.40;;;1.50;99.90;0.50;99449;;;;578039;246;24098;-76
2023/12/10 09:54:55;;;;;;;43.00;22.23;;;1.50;99.90;0.50;99451;;;;577675;246;24089;-77
2023/12/10 09:57:26;;;;;;;45.73;23.87;;;1.60;99.90;0.50;99456;;;;577718;246;24110;-76
2023/12/10 09:59:51;;;;;;;47.83;23.23;;;1.60;99.90;0.50;99440;;;;577846;249;24127;-78
2023/12/10 10:02:19;;;;;;;39.57;19.67;;;1.60;99.90;0.50;99449;;;;577687;246;24078;-78
2023/12/10 10:04:47;;;;;;;15.17;7.57;;;1.60;99.90;0.60;99440;;;;578039;246;24070;-81
2023/12/10 10:07:15;;;;;;;41.77;16.67;;;1.60;99.90;0.50;99436;;;;578008;246;24145;-78
2023/12/10 10:09:44;;;;;;;28.53;14.93;;;1.60;99.90;0.60;99450;;;;578036;245;24119;-79
2023/12/10 10:12:14;;;;;;;23.03;13.23;;;1.60;99.90;0.60;99441;;;;578479;247;24114;-77
2023/12/10 10:14:39;;;;;;;33.87;14.20;;;1.70;99.90;0.60;99441;;;;577579;249;24078;-81
2023/12/10 10:17:06;;;;;;;30.67;14.40;;;1.60;99.90;0.60;99438;;;;578078;246;24090;-81
2023/12/10 10:19:35;;;;;;;28.30;14.37;;;1.60;99.90;0.60;99434;;;;577670;246;24175;-81
2023/12/10 10:22:02;;;;;;;30.40;15.93;;;1.70;99.90;0.60;99441;;;;577750;246;24140;-81
2023/12/10 10:24:32;;;;;;;15.20;8.87;;;2.50;99.90;0.60;99445;;;;577177;246;24089;-81
2023/12/10 10:26:58;;;;;;;21.93;12.13;;;1.70;99.90;0.70;99432;;;;577327;249;24064;-83
2023/12/10 10:29:26;;;;;;;28.70;15.00;;;1.70;99.90;0.60;99439;;;;577144;246;24100;-82
2023/12/10 10:31:54;;;;;;;52.80;26.17;;;1.70;99.90;0.70;99439;;;;572426;246;35264;-79
2023/12/10 10:34:22;;;;;;;33.53;17.33;;;1.70;99.90;0.70;99435;;;;577079;246;24102;-79
2023/12/10 10:36:51;;;;;;;26.27;15.80;;;1.80;99.90;0.80;99432;;;;577445;246;24169;-76
2023/12/10 10:39:17;;;;;;;22.63;11.93;;;1.90;99.90;0.80;99438;;;;577094;246;24139;-77
2023/12/10 10:41:45;;;;;;;13.70;9.07;;;1.90;99.90;0.90;99431;;;;577437;246;24075;-76
2023/12/10 10:44:13;;;;;;;31.27;14.80;;;1.90;99.90;0.90;99444;;;;576917;249;24175;-76
2023/12/10 10:46:41;;;;;;;22.80;13.03;;;2.00;99.90;0.90;99439;;;;577421;246;24105;-79
2023/12/10 10:49:09;;;;;;;22.00;12.03;;;2.00;99.90;1.00;99440;;;;576951;246;24133;-78
2023/12/10 10:51:37;;;;;;;27.20;15.67;;;2.00;99.90;1.00;99436;;;;578757;246;24085;-76
2023/12/10 10:54:05;;;;;;;20.10;9.50;;;2.00;99.90;1.00;99430;;;;577945;247;24078;-77
2023/12/10 10:56:33;;;;;;;26.73;13.80;;;2.00;99.90;1.00;99424;;;;578192;246;24091;-76
2023/12/10 10:59:01;;;;;;;27.87;13.97;;;2.00;99.90;1.00;99438;;;;578155;246;24097;-76
2023/12/10 11:01:41;;;;;;;19.63;10.27;;;2.00;99.90;1.00;99429;;;;577478;246;24077;-77
2023/12/10 11:04:20;;;;;;;24.43;14.57;;;2.10;99.90;1.10;99426;;;;577534;246;24137;-79
2023/12/10 11:06:50;;;;;;;22.40;13.40;;;2.10;99.90;1.10;99428;;;;577679;246;24108;-79
2023/12/10 11:09:15;;;;;;;9.77;6.90;;;2.10;99.90;1.10;99422;;;;577248;245;24083;-77
2023/12/10 11:11:44;;;;;;;30.27;12.67;;;2.20;99.90;1.20;99427;;;;577140;247;24126;-79